sensor_id;sensor_type;location;lat;lon;timestamp;temperature;humidity
51619;DHT22;38518;53.164;5.430;2022-07-23T00:00:12;14.10;99.90
51619;DHT22;38518;53.164;5.430;2022-07-23T00:02:38;14.10;99.90
51619;DHT22;38518;53.164;5.430;2022-07-23T00:05:04;14.00;99.90
51619;DHT22;38518;53.164;5.430;2022-07-23T00:07:29;14.00;99.90
51619;DHT22;38518;53.164;5.430;2022-07-23T00:09:55;14.00;99.90
51619;DHT22;38518;53.164;5.430;2022-07-23T00:12:21;14.00;99.90
51619;DHT22;38518;53.164;5.430;2022-07-23T00:14:47;13.90;99.90
51619;DHT22;38518;53.164;5.430;2022-07-23T00:17:12;13.90;99.90
51619;DHT22;38518;53.164;5.430;2022-07-23T00:19:38;13.90;99.90
51619;DHT22;38518;53.164;5.430;2022-07-23T00:22:04;13.90;99.90
51619;DHT22;38518;53.164;5.430;2022-07-23T00:24:30;13.90;99.90
51619;DHT22;38518;53.164;5.430;2022-07-23T00:26:55;13.40;99.90
51619;DHT22;38518;53.164;5.430;2022-07-23T00:29:21;13.70;99.90
51619;DHT22;38518;53.164;5.430;2022-07-23T00:31:47;13.80;99.90
51619;DHT22;38518;53.164;5.430;2022-07-23T00:34:13;13.80;99.90
51619;DHT22;38518;53.164;5.430;2022-07-23T00:36:39;13.80;99.90
51619;DHT22;38518;53.164;5.430;2022-07-23T00:39:05;13.70;99.90
51619;DHT22;38518;53.164;5.430;2022-07-23T00:41:31;13.70;99.90
51619;DHT22;38518;53.164;5.430;2022-07-23T00:44:24;13.60;99.90
51619;DHT22;38518;53.164;5.430;2022-07-23T00:46:53;13.60;99.90
51619;DHT22;38518;53.164;5.430;2022-07-23T00:49:29;13.50;99.90
51619;DHT22;38518;53.164;5.430;2022-07-23T00:51:56;13.50;99.90
51619;DHT22;38518;53.164;5.430;2022-07-23T00:54:24;13.40;99.90
51619;DHT22;38518;53.164;5.430;2022-07-23T00:56:51;13.40;99.90
51619;DHT22;38518;53.164;5.430;2022-07-23T00:59:17;13.40;99.90
51619;DHT22;38518;53.164;5.430;2022-07-23T01:01:42;13.30;99.90
51619;DHT22;38518;53.164;5.430;2022-07-23T01:04:10;13.20;99.90
51619;DHT22;38518;53.164;5.430;2022-07-23T01:06:37;13.20;99.90
51619;DHT22;38518;53.164;5.430;2022-07-23T01:09:05;13.10;99.90
51619;DHT22;38518;53.164;5.430;2022-07-23T01:11:36;13.10;99.90
51619;DHT22;38518;53.164;5.430;2022-07-23T01:14:13;13.10;99.90
51619;DHT22;38518;53.164;5.430;2022-07-23T01:16:40;13.10;99.90
51619;DHT22;38518;53.164;5.430;2022-07-23T01:19:07;13.10;99.90
51619;DHT22;38518;53.164;5.430;2022-07-23T01:21:35;13.00;99.90
51619;DHT22;38518;53.164;5.430;2022-07-23T01:24:01;13.00;99.90
51619;DHT22;38518;53.164;5.430;2022-07-23T01:26:27;13.00;99.90
51619;DHT22;38518;53.164;5.430;2022-07-23T01:28:52;13.00;99.90
51619;DHT22;38518;53.164;5.430;2022-07-23T01:31:18;13.00;99.90
51619;DHT22;38518;53.164;5.430;2022-07-23T01:33:44;13.00;99.90
51619;DHT22;38518;53.164;5.430;2022-07-23T01:36:10;13.10;99.90
51619;DHT22;38518;53.164;5.430;2022-07-23T01:38:36;13.00;99.90
51619;DHT22;38518;53.164;5.430;2022-07-23T01:41:02;13.10;99.90
51619;DHT22;38518;53.164;5.430;2022-07-23T01:43:28;13.10;99.90
51619;DHT22;38518;53.164;5.430;2022-07-23T01:45:53;13.10;99.90
51619;DHT22;38518;53.164;5.430;2022-07-23T01:48:19;13.10;99.90
51619;DHT22;38518;53.164;5.430;2022-07-23T01:50:47;13.10;99.90
51619;DHT22;38518;53.164;5.430;2022-07-23T01:53:13;13.10;99.90
51619;DHT22;38518;53.164;5.430;2022-07-23T01:55:39;13.10;99.90
51619;DHT22;38518;53.164;5.430;2022-07-23T01:58:05;13.20;1.00
51619;DHT22;38518;53.164;5.430;2022-07-23T02:00:31;13.20;1.00
51619;DHT22;38518;53.164;5.430;2022-07-23T02:02:57;13.20;1.00
51619;DHT22;38518;53.164;5.430;2022-07-23T02:05:24;13.20;1.00
51619;DHT22;38518;53.164;5.430;2022-07-23T02:07:50;13.20;1.00
51619;DHT22;38518;53.164;5.430;2022-07-23T02:10:16;13.20;1.00
51619;DHT22;38518;53.164;5.430;2022-07-23T02:12:42;13.20;1.00
51619;DHT22;38518;53.164;5.430;2022-07-23T02:15:08;13.20;1.00
51619;DHT22;38518;53.164;5.430;2022-07-23T02:17:34;13.30;1.00
51619;DHT22;38518;53.164;5.430;2022-07-23T02:20:00;12.60;1.00
51619;DHT22;38518;53.164;5.430;2022-07-23T02:22:26;13.30;1.00
51619;DHT22;38518;53.164;5.430;2022-07-23T02:24:52;13.40;1.00
51619;DHT22;38518;53.164;5.430;2022-07-23T02:27:17;13.40;1.00
51619;DHT22;38518;53.164;5.430;2022-07-23T02:29:43;13.50;1.00
51619;DHT22;38518;53.164;5.430;2022-07-23T02:32:09;13.50;1.00
51619;DHT22;38518;53.164;5.430;2022-07-23T02:34:34;13.50;1.00
51619;DHT22;38518;53.164;5.430;2022-07-23T02:37:00;13.50;1.00
51619;DHT22;38518;53.164;5.430;2022-07-23T02:39:26;13.50;1.00
51619;DHT22;38518;53.164;5.430;2022-07-23T02:41:52;13.50;1.00
51619;DHT22;38518;53.164;5.430;2022-07-23T02:44:18;13.50;1.00
51619;DHT22;38518;53.164;5.430;2022-07-23T02:46:44;13.50;1.00
51619;DHT22;38518;53.164;5.430;2022-07-23T02:49:09;13.40;1.00
51619;DHT22;38518;53.164;5.430;2022-07-23T02:51:35;13.40;1.00
51619;DHT22;38518;53.164;5.430;2022-07-23T02:54:01;13.40;99.90
51619;DHT22;38518;53.164;5.430;2022-07-23T02:56:26;13.40;99.90
51619;DHT22;38518;53.164;5.430;2022-07-23T02:58:52;13.30;99.90
51619;DHT22;38518;53.164;5.430;2022-07-23T03:01:18;13.40;99.90
51619;DHT22;38518;53.164;5.430;2022-07-23T03:03:44;13.30;99.90
51619;DHT22;38518;53.164;5.430;2022-07-23T03:06:09;13.30;99.90
51619;DHT22;38518;53.164;5.430;2022-07-23T03:08:35;13.30;99.90
51619;DHT22;38518;53.164;5.430;2022-07-23T03:11:01;13.30;99.90
51619;DHT22;38518;53.164;5.430;2022-07-23T03:13:27;13.30;99.90
51619;DHT22;38518;53.164;5.430;2022-07-23T03:15:53;13.40;99.90
51619;DHT22;38518;53.164;5.430;2022-07-23T03:18:19;13.40;99.90
51619;DHT22;38518;53.164;5.430;2022-07-23T03:20:44;13.50;99.90
51619;DHT22;38518;53.164;5.430;2022-07-23T03:23:10;13.50;99.90
51619;DHT22;38518;53.164;5.430;2022-07-23T03:25:36;13.50;99.90
51619;DHT22;38518;53.164;5.430;2022-07-23T03:28:02;13.50;99.90
51619;DHT22;38518;53.164;5.430;2022-07-23T03:30:27;13.50;99.90
51619;DHT22;38518;53.164;5.430;2022-07-23T03:32:53;13.60;99.90
51619;DHT22;38518;53.164;5.430;2022-07-23T03:35:19;13.60;99.90
51619;DHT22;38518;53.164;5.430;2022-07-23T03:37:44;13.60;99.90
51619;DHT22;38518;53.164;5.430;2022-07-23T03:40:11;13.60;99.90
51619;DHT22;38518;53.164;5.430;2022-07-23T03:42:37;13.60;99.90
51619;DHT22;38518;53.164;5.430;2022-07-23T03:45:04;13.70;99.90
51619;DHT22;38518;53.164;5.430;2022-07-23T03:47:30;13.70;99.90
51619;DHT22;38518;53.164;5.430;2022-07-23T03:49:55;13.70;99.90
51619;DHT22;38518;53.164;5.430;2022-07-23T03:52:21;13.70;99.90
51619;DHT22;38518;53.164;5.430;2022-07-23T03:54:47;13.70;99.90
51619;DHT22;38518;53.164;5.430;2022-07-23T03:57:13;13.80;99.90
51619;DHT22;38518;53.164;5.430;2022-07-23T03:59:39;13.90;99.90
51619;DHT22;38518;53.164;5.430;2022-07-23T04:02:04;13.90;99.90
51619;DHT22;38518;53.164;5.430;2022-07-23T04:04:30;13.90;99.90
51619;DHT22;38518;53.164;5.430;2022-07-23T04:06:56;14.00;99.90
51619;DHT22;38518;53.164;5.430;2022-07-23T04:09:21;14.00;99.90
51619;DHT22;38518;53.164;5.430;2022-07-23T04:11:47;14.80;99.90
51619;DHT22;38518;53.164;5.430;2022-07-23T04:14:13;14.10;99.90
51619;DHT22;38518;53.164;5.430;2022-07-23T04:16:38;14.20;99.90
51619;DHT22;38518;53.164;5.430;2022-07-23T04:19:04;14.30;99.90
51619;DHT22;38518;53.164;5.430;2022-07-23T04:21:30;14.40;99.90
51619;DHT22;38518;53.164;5.430;2022-07-23T04:23:56;14.40;99.90
51619;DHT22;38518;53.164;5.430;2022-07-23T04:26:21;14.30;99.90
51619;DHT22;38518;53.164;5.430;2022-07-23T04:28:47;14.40;99.90
51619;DHT22;38518;53.164;5.430;2022-07-23T04:31:13;14.40;99.90
51619;DHT22;38518;53.164;5.430;2022-07-23T04:33:39;14.50;99.90
51619;DHT22;38518;53.164;5.430;2022-07-23T04:36:05;14.60;99.90
51619;DHT22;38518;53.164;5.430;2022-07-23T04:38:30;14.70;99.90
51619;DHT22;38518;53.164;5.430;2022-07-23T04:40:58;14.80;99.90
51619;DHT22;38518;53.164;5.430;2022-07-23T04:43:24;14.90;99.90
51619;DHT22;38518;53.164;5.430;2022-07-23T04:45:50;14.90;99.90
51619;DHT22;38518;53.164;5.430;2022-07-23T04:48:15;14.10;99.90
51619;DHT22;38518;53.164;5.430;2022-07-23T04:50:41;15.00;99.90
51619;DHT22;38518;53.164;5.430;2022-07-23T04:53:08;15.10;99.90
51619;DHT22;38518;53.164;5.430;2022-07-23T04:55:34;15.10;99.90
51619;DHT22;38518;53.164;5.430;2022-07-23T04:58:00;15.10;99.90
51619;DHT22;38518;53.164;5.430;2022-07-23T05:00:25;15.10;99.90
51619;DHT22;38518;53.164;5.430;2022-07-23T05:02:51;15.20;99.90
51619;DHT22;38518;53.164;5.430;2022-07-23T05:05:17;15.20;99.90
51619;DHT22;38518;53.164;5.430;2022-07-23T05:07:42;15.20;99.90
51619;DHT22;38518;53.164;5.430;2022-07-23T05:10:08;15.20;99.90
51619;DHT22;38518;53.164;5.430;2022-07-23T05:12:34;15.30;99.90
51619;DHT22;38518;53.164;5.430;2022-07-23T05:15:00;15.30;99.90
51619;DHT22;38518;53.164;5.430;2022-07-23T05:17:25;15.40;99.90
51619;DHT22;38518;53.164;5.430;2022-07-23T05:19:51;15.30;99.90
51619;DHT22;38518;53.164;5.430;2022-07-23T05:22:17;15.30;99.90
51619;DHT22;38518;53.164;5.430;2022-07-23T05:24:43;15.30;99.90
51619;DHT22;38518;53.164;5.430;2022-07-23T05:27:08;15.40;99.90
51619;DHT22;38518;53.164;5.430;2022-07-23T05:29:34;15.60;99.90
51619;DHT22;38518;53.164;5.430;2022-07-23T05:32:00;15.70;99.90
51619;DHT22;38518;53.164;5.430;2022-07-23T05:34:26;15.70;99.90
51619;DHT22;38518;53.164;5.430;2022-07-23T05:36:51;15.70;95.10
51619;DHT22;38518;53.164;5.430;2022-07-23T05:39:17;15.80;95.20
51619;DHT22;38518;53.164;5.430;2022-07-23T05:41:43;15.80;94.00
51619;DHT22;38518;53.164;5.430;2022-07-23T05:44:09;15.90;92.10
51619;DHT22;38518;53.164;5.430;2022-07-23T05:46:34;15.90;93.50
51619;DHT22;38518;53.164;5.430;2022-07-23T05:49:00;16.00;94.70
51619;DHT22;38518;53.164;5.430;2022-07-23T05:51:26;16.10;93.30
51619;DHT22;38518;53.164;5.430;2022-07-23T05:53:52;16.10;94.40
51619;DHT22;38518;53.164;5.430;2022-07-23T05:56:18;16.20;94.70
51619;DHT22;38518;53.164;5.430;2022-07-23T05:58:44;16.40;93.10
51619;DHT22;38518;53.164;5.430;2022-07-23T06:01:10;16.50;92.80
51619;DHT22;38518;53.164;5.430;2022-07-23T06:03:37;16.70;92.70
51619;DHT22;38518;53.164;5.430;2022-07-23T06:06:04;16.90;86.10
51619;DHT22;38518;53.164;5.430;2022-07-23T06:08:30;17.30;82.80
51619;DHT22;38518;53.164;5.430;2022-07-23T06:10:56;17.60;70.50
51619;DHT22;38518;53.164;5.430;2022-07-23T06:13:22;17.70;67.70
51619;DHT22;38518;53.164;5.430;2022-07-23T06:15:48;17.70;65.70
51619;DHT22;38518;53.164;5.430;2022-07-23T06:18:14;17.70;61.70
51619;DHT22;38518;53.164;5.430;2022-07-23T06:20:40;17.80;54.90
51619;DHT22;38518;53.164;5.430;2022-07-23T06:23:05;17.90;54.90
51619;DHT22;38518;53.164;5.430;2022-07-23T06:25:31;17.90;57.40
51619;DHT22;38518;53.164;5.430;2022-07-23T06:27:57;17.70;57.70
51619;DHT22;38518;53.164;5.430;2022-07-23T06:30:23;17.80;60.40
51619;DHT22;38518;53.164;5.430;2022-07-23T06:32:49;17.80;56.20
51619;DHT22;38518;53.164;5.430;2022-07-23T06:35:15;17.80;56.80
51619;DHT22;38518;53.164;5.430;2022-07-23T06:37:41;17.80;59.20
51619;DHT22;38518;53.164;5.430;2022-07-23T06:40:07;17.80;61.00
51619;DHT22;38518;53.164;5.430;2022-07-23T06:42:36;17.80;61.10
51619;DHT22;38518;53.164;5.430;2022-07-23T06:45:12;17.80;61.00
51619;DHT22;38518;53.164;5.430;2022-07-23T06:47:38;17.80;63.50
51619;DHT22;38518;53.164;5.430;2022-07-23T06:50:06;17.90;65.00
51619;DHT22;38518;53.164;5.430;2022-07-23T06:52:32;17.90;62.00
51619;DHT22;38518;53.164;5.430;2022-07-23T06:54:59;17.90;63.70
51619;DHT22;38518;53.164;5.430;2022-07-23T06:57:27;17.80;60.50
51619;DHT22;38518;53.164;5.430;2022-07-23T06:59:53;17.80;59.50
51619;DHT22;38518;53.164;5.430;2022-07-23T07:02:19;17.80;59.20
51619;DHT22;38518;53.164;5.430;2022-07-23T07:04:50;17.80;61.70
51619;DHT22;38518;53.164;5.430;2022-07-23T07:07:18;17.40;61.50
51619;DHT22;38518;53.164;5.430;2022-07-23T07:09:44;17.90;63.70
51619;DHT22;38518;53.164;5.430;2022-07-23T07:12:10;17.80;60.40
51619;DHT22;38518;53.164;5.430;2022-07-23T07:14:37;17.80;59.10
51619;DHT22;38518;53.164;5.430;2022-07-23T07:17:03;17.80;62.40
51619;DHT22;38518;53.164;5.430;2022-07-23T07:19:29;17.70;61.00
51619;DHT22;38518;53.164;5.430;2022-07-23T07:21:55;17.70;61.30
51619;DHT22;38518;53.164;5.430;2022-07-23T07:24:20;17.70;64.80
51619;DHT22;38518;53.164;5.430;2022-07-23T07:33:30;17.80;65.20
51619;DHT22;38518;53.164;5.430;2022-07-23T07:35:56;17.80;71.30
51619;DHT22;38518;53.164;5.430;2022-07-23T07:38:54;17.80;71.00
51619;DHT22;38518;53.164;5.430;2022-07-23T07:45:24;18.10;65.20
51619;DHT22;38518;53.164;5.430;2022-07-23T07:47:51;17.80;70.00
51619;DHT22;38518;53.164;5.430;2022-07-23T07:50:20;17.90;71.70
51619;DHT22;38518;53.164;5.430;2022-07-23T07:52:46;18.10;74.10
51619;DHT22;38518;53.164;5.430;2022-07-23T07:55:15;18.20;70.20
51619;DHT22;38518;53.164;5.430;2022-07-23T07:57:41;18.20;70.90
51619;DHT22;38518;53.164;5.430;2022-07-23T08:00:09;18.30;66.50
51619;DHT22;38518;53.164;5.430;2022-07-23T08:02:46;18.30;64.30
51619;DHT22;38518;53.164;5.430;2022-07-23T08:05:12;18.40;65.10
51619;DHT22;38518;53.164;5.430;2022-07-23T08:07:39;18.50;62.90
51619;DHT22;38518;53.164;5.430;2022-07-23T08:10:07;18.50;63.40
51619;DHT22;38518;53.164;5.430;2022-07-23T08:12:43;18.50;63.60
51619;DHT22;38518;53.164;5.430;2022-07-23T08:15:13;18.50;62.80
51619;DHT22;38518;53.164;5.430;2022-07-23T08:17:40;18.50;64.40
51619;DHT22;38518;53.164;5.430;2022-07-23T08:20:07;18.50;70.50
51619;DHT22;38518;53.164;5.430;2022-07-23T08:22:54;18.50;67.30
51619;DHT22;38518;53.164;5.430;2022-07-23T08:25:34;18.50;67.10
51619;DHT22;38518;53.164;5.430;2022-07-23T08:28:03;18.60;68.20
51619;DHT22;38518;53.164;5.430;2022-07-23T08:30:30;18.60;65.90
51619;DHT22;38518;53.164;5.430;2022-07-23T08:32:59;18.50;69.20
51619;DHT22;38518;53.164;5.430;2022-07-23T08:35:30;18.50;69.10
51619;DHT22;38518;53.164;5.430;2022-07-23T08:37:57;18.50;70.20
51619;DHT22;38518;53.164;5.430;2022-07-23T08:40:26;18.40;69.40
51619;DHT22;38518;53.164;5.430;2022-07-23T08:42:52;18.40;66.80
51619;DHT22;38518;53.164;5.430;2022-07-23T08:45:22;18.30;71.40
51619;DHT22;38518;53.164;5.430;2022-07-23T08:47:54;18.30;76.30
51619;DHT22;38518;53.164;5.430;2022-07-23T08:50:21;18.30;77.90
51619;DHT22;38518;53.164;5.430;2022-07-23T08:52:49;18.40;82.80
51619;DHT22;38518;53.164;5.430;2022-07-23T08:55:21;18.40;80.10
51619;DHT22;38518;53.164;5.430;2022-07-23T08:57:52;18.50;74.60
51619;DHT22;38518;53.164;5.430;2022-07-23T09:00:19;18.40;70.30
51619;DHT22;38518;53.164;5.430;2022-07-23T09:02:46;18.40;71.60
51619;DHT22;38518;53.164;5.430;2022-07-23T09:05:13;18.40;75.90
51619;DHT22;38518;53.164;5.430;2022-07-23T09:08:20;18.60;77.90
51619;DHT22;38518;53.164;5.430;2022-07-23T09:10:59;18.90;73.70
51619;DHT22;38518;53.164;5.430;2022-07-23T09:16:11;19.20;70.40
51619;DHT22;38518;53.164;5.430;2022-07-23T09:21:15;19.60;66.50
51619;DHT22;38518;53.164;5.430;2022-07-23T09:23:55;19.80;64.80
51619;DHT22;38518;53.164;5.430;2022-07-23T09:29:09;20.30;63.40
51619;DHT22;38518;53.164;5.430;2022-07-23T09:34:13;20.50;53.30
51619;DHT22;38518;53.164;5.430;2022-07-23T09:36:39;20.60;53.00
51619;DHT22;38518;53.164;5.430;2022-07-23T09:39:05;19.80;56.00
51619;DHT22;38518;53.164;5.430;2022-07-23T09:41:38;20.80;46.50
51619;DHT22;38518;53.164;5.430;2022-07-23T09:44:23;21.10;48.60
51619;DHT22;38518;53.164;5.430;2022-07-23T09:46:50;21.60;44.80
51619;DHT22;38518;53.164;5.430;2022-07-23T09:49:22;21.90;46.20
51619;DHT22;38518;53.164;5.430;2022-07-23T09:51:54;22.50;50.60
51619;DHT22;38518;53.164;5.430;2022-07-23T09:54:39;23.00;35.20
51619;DHT22;38518;53.164;5.430;2022-07-23T09:57:08;23.20;30.50
51619;DHT22;38518;53.164;5.430;2022-07-23T09:59:36;23.10;31.20
51619;DHT22;38518;53.164;5.430;2022-07-23T10:02:05;23.20;28.80
51619;DHT22;38518;53.164;5.430;2022-07-23T10:04:31;22.90;25.90
51619;DHT22;38518;53.164;5.430;2022-07-23T10:07:00;22.80;26.30
51619;DHT22;38518;53.164;5.430;2022-07-23T10:09:31;23.00;27.00
51619;DHT22;38518;53.164;5.430;2022-07-23T10:12:02;23.20;25.50
51619;DHT22;38518;53.164;5.430;2022-07-23T10:14:31;23.50;24.50
51619;DHT22;38518;53.164;5.430;2022-07-23T10:17:01;23.80;24.90
51619;DHT22;38518;53.164;5.430;2022-07-23T10:19:27;24.20;22.40
51619;DHT22;38518;53.164;5.430;2022-07-23T10:21:57;24.40;21.60
51619;DHT22;38518;53.164;5.430;2022-07-23T10:24:28;24.50;19.00
51619;DHT22;38518;53.164;5.430;2022-07-23T10:30:04;25.00;12.90
51619;DHT22;38518;53.164;5.430;2022-07-23T10:35:16;25.40;13.70
51619;DHT22;38518;53.164;5.430;2022-07-23T10:37:49;25.60;15.30
51619;DHT22;38518;53.164;5.430;2022-07-23T10:40:17;26.00;14.70
51619;DHT22;38518;53.164;5.430;2022-07-23T10:42:45;26.20;11.90
51619;DHT22;38518;53.164;5.430;2022-07-23T10:45:34;26.60;12.20
51619;DHT22;38518;53.164;5.430;2022-07-23T10:51:12;26.60;7.80
51619;DHT22;38518;53.164;5.430;2022-07-23T10:59:20;26.70;5.40
51619;DHT22;38518;53.164;5.430;2022-07-23T11:01:46;26.80;6.10
51619;DHT22;38518;53.164;5.430;2022-07-23T11:04:12;26.90;5.30
51619;DHT22;38518;53.164;5.430;2022-07-23T11:09:30;27.30;2.70
51619;DHT22;38518;53.164;5.430;2022-07-23T11:15:06;27.20;1.90
51619;DHT22;38518;53.164;5.430;2022-07-23T11:17:35;27.20;2.50
51619;DHT22;38518;53.164;5.430;2022-07-23T11:25:10;27.80;1.00
51619;DHT22;38518;53.164;5.430;2022-07-23T11:27:44;27.90;1.00
51619;DHT22;38518;53.164;5.430;2022-07-23T11:32:53;28.10;1.00
51619;DHT22;38518;53.164;5.430;2022-07-23T11:35:27;28.50;1.00
51619;DHT22;38518;53.164;5.430;2022-07-23T11:38:13;28.50;1.00
51619;DHT22;38518;53.164;5.430;2022-07-23T11:40:39;28.60;1.00
51619;DHT22;38518;53.164;5.430;2022-07-23T11:43:09;28.60;1.00
51619;DHT22;38518;53.164;5.430;2022-07-23T11:45:39;28.70;1.00
51619;DHT22;38518;53.164;5.430;2022-07-23T11:48:08;28.70;1.00
51619;DHT22;38518;53.164;5.430;2022-07-23T11:50:34;28.70;1.00
51619;DHT22;38518;53.164;5.430;2022-07-23T11:53:01;28.70;1.00
51619;DHT22;38518;53.164;5.430;2022-07-23T11:55:27;28.80;1.00
51619;DHT22;38518;53.164;5.430;2022-07-23T11:57:54;28.70;1.00
51619;DHT22;38518;53.164;5.430;2022-07-23T12:00:25;28.70;1.00
51619;DHT22;38518;53.164;5.430;2022-07-23T12:02:54;28.80;1.00
51619;DHT22;38518;53.164;5.430;2022-07-23T12:05:23;28.80;1.00
51619;DHT22;38518;53.164;5.430;2022-07-23T12:07:51;28.80;1.00
51619;DHT22;38518;53.164;5.430;2022-07-23T12:10:19;28.70;1.00
51619;DHT22;38518;53.164;5.430;2022-07-23T12:12:59;28.50;1.00
51619;DHT22;38518;53.164;5.430;2022-07-23T12:15:28;28.50;1.00
51619;DHT22;38518;53.164;5.430;2022-07-23T12:17:56;28.40;1.00
51619;DHT22;38518;53.164;5.430;2022-07-23T12:20:24;28.50;1.00
51619;DHT22;38518;53.164;5.430;2022-07-23T12:22:53;28.30;1.00
51619;DHT22;38518;53.164;5.430;2022-07-23T12:25:23;28.30;1.00
51619;DHT22;38518;53.164;5.430;2022-07-23T12:28:09;28.40;1.00
51619;DHT22;38518;53.164;5.430;2022-07-23T12:33:21;28.80;1.00
51619;DHT22;38518;53.164;5.430;2022-07-23T12:35:49;28.90;1.00
51619;DHT22;38518;53.164;5.430;2022-07-23T12:38:17;28.80;1.00
51619;DHT22;38518;53.164;5.430;2022-07-23T12:40:48;28.80;1.00
51619;DHT22;38518;53.164;5.430;2022-07-23T12:48:39;29.00;1.00
51619;DHT22;38518;53.164;5.430;2022-07-23T12:51:15;28.90;1.00
51619;DHT22;38518;53.164;5.430;2022-07-23T12:53:44;29.10;1.00
51619;DHT22;38518;53.164;5.430;2022-07-23T12:56:15;29.00;1.00
51619;DHT22;38518;53.164;5.430;2022-07-23T13:06:24;28.40;1.00
51619;DHT22;38518;53.164;5.430;2022-07-23T13:08:50;28.40;1.00
51619;DHT22;38518;53.164;5.430;2022-07-23T13:11:16;28.70;1.00
51619;DHT22;38518;53.164;5.430;2022-07-23T13:13:42;28.70;1.00
51619;DHT22;38518;53.164;5.430;2022-07-23T13:16:08;28.70;1.00
51619;DHT22;38518;53.164;5.430;2022-07-23T13:18:33;28.70;1.00
51619;DHT22;38518;53.164;5.430;2022-07-23T13:20:59;28.80;1.00
51619;DHT22;38518;53.164;5.430;2022-07-23T13:23:26;28.90;1.00
51619;DHT22;38518;53.164;5.430;2022-07-23T13:25:52;29.00;1.00
51619;DHT22;38518;53.164;5.430;2022-07-23T13:28:19;29.20;1.00
51619;DHT22;38518;53.164;5.430;2022-07-23T13:30:46;29.10;1.00
51619;DHT22;38518;53.164;5.430;2022-07-23T13:33:16;29.10;1.00
51619;DHT22;38518;53.164;5.430;2022-07-23T13:35:42;29.30;1.00
51619;DHT22;38518;53.164;5.430;2022-07-23T13:38:08;29.60;1.00
51619;DHT22;38518;53.164;5.430;2022-07-23T13:40:36;29.60;1.00
51619;DHT22;38518;53.164;5.430;2022-07-23T13:43:05;29.40;1.00
51619;DHT22;38518;53.164;5.430;2022-07-23T13:45:31;29.20;1.00
51619;DHT22;38518;53.164;5.430;2022-07-23T13:47:57;29.20;1.00
51619;DHT22;38518;53.164;5.430;2022-07-23T13:50:23;29.20;1.00
51619;DHT22;38518;53.164;5.430;2022-07-23T13:52:49;29.20;1.00
51619;DHT22;38518;53.164;5.430;2022-07-23T13:55:15;29.00;1.00
51619;DHT22;38518;53.164;5.430;2022-07-23T13:57:41;28.80;1.00
51619;DHT22;38518;53.164;5.430;2022-07-23T14:00:08;29.00;1.00
51619;DHT22;38518;53.164;5.430;2022-07-23T14:02:36;28.90;1.00
51619;DHT22;38518;53.164;5.430;2022-07-23T14:05:07;29.00;1.00
51619;DHT22;38518;53.164;5.430;2022-07-23T14:07:34;29.10;1.00
51619;DHT22;38518;53.164;5.430;2022-07-23T14:10:01;29.00;1.00
51619;DHT22;38518;53.164;5.430;2022-07-23T14:12:26;29.30;1.00
51619;DHT22;38518;53.164;5.430;2022-07-23T14:14:52;29.60;1.00
51619;DHT22;38518;53.164;5.430;2022-07-23T14:17:18;29.40;1.00
51619;DHT22;38518;53.164;5.430;2022-07-23T14:19:44;29.40;1.00
51619;DHT22;38518;53.164;5.430;2022-07-23T14:22:10;29.40;1.00
51619;DHT22;38518;53.164;5.430;2022-07-23T14:24:36;29.40;1.00
51619;DHT22;38518;53.164;5.430;2022-07-23T14:27:03;29.50;1.00
51619;DHT22;38518;53.164;5.430;2022-07-23T14:29:29;29.80;1.00
51619;DHT22;38518;53.164;5.430;2022-07-23T14:31:57;29.90;1.00
51619;DHT22;38518;53.164;5.430;2022-07-23T14:34:24;29.90;1.00
51619;DHT22;38518;53.164;5.430;2022-07-23T14:36:51;30.20;1.00
51619;DHT22;38518;53.164;5.430;2022-07-23T14:39:17;30.40;1.00
51619;DHT22;38518;53.164;5.430;2022-07-23T14:41:43;30.30;1.00
51619;DHT22;38518;53.164;5.430;2022-07-23T14:44:09;30.10;1.00
51619;DHT22;38518;53.164;5.430;2022-07-23T14:46:36;30.40;1.00
51619;DHT22;38518;53.164;5.430;2022-07-23T14:49:03;30.30;1.00
51619;DHT22;38518;53.164;5.430;2022-07-23T14:51:29;30.30;1.00
51619;DHT22;38518;53.164;5.430;2022-07-23T14:53:55;30.30;1.00
51619;DHT22;38518;53.164;5.430;2022-07-23T14:56:20;30.30;1.00
51619;DHT22;38518;53.164;5.430;2022-07-23T14:58:46;30.40;1.00
51619;DHT22;38518;53.164;5.430;2022-07-23T15:01:13;30.50;1.00
51619;DHT22;38518;53.164;5.430;2022-07-23T15:03:38;30.90;1.00
51619;DHT22;38518;53.164;5.430;2022-07-23T15:06:05;31.00;1.00
51619;DHT22;38518;53.164;5.430;2022-07-23T15:08:30;31.30;1.00
51619;DHT22;38518;53.164;5.430;2022-07-23T15:10:56;31.40;1.00
51619;DHT22;38518;53.164;5.430;2022-07-23T15:13:22;31.60;1.00
51619;DHT22;38518;53.164;5.430;2022-07-23T15:15:48;31.40;1.00
51619;DHT22;38518;53.164;5.430;2022-07-23T15:18:14;31.40;1.00
51619;DHT22;38518;53.164;5.430;2022-07-23T15:20:40;31.40;1.00
51619;DHT22;38518;53.164;5.430;2022-07-23T15:23:06;31.40;1.00
51619;DHT22;38518;53.164;5.430;2022-07-23T15:25:32;31.30;1.00
51619;DHT22;38518;53.164;5.430;2022-07-23T15:27:58;31.30;1.00
51619;DHT22;38518;53.164;5.430;2022-07-23T15:30:25;31.10;1.00
51619;DHT22;38518;53.164;5.430;2022-07-23T15:32:51;30.90;1.00
51619;DHT22;38518;53.164;5.430;2022-07-23T15:35:17;30.90;1.00
51619;DHT22;38518;53.164;5.430;2022-07-23T15:37:43;30.90;1.00
51619;DHT22;38518;53.164;5.430;2022-07-23T15:40:10;30.70;1.00
51619;DHT22;38518;53.164;5.430;2022-07-23T15:42:36;30.70;1.00
51619;DHT22;38518;53.164;5.430;2022-07-23T15:45:03;30.40;1.00
51619;DHT22;38518;53.164;5.430;2022-07-23T15:47:29;29.40;1.00
51619;DHT22;38518;53.164;5.430;2022-07-23T15:49:55;28.50;1.00
51619;DHT22;38518;53.164;5.430;2022-07-23T15:52:20;27.70;1.00
51619;DHT22;38518;53.164;5.430;2022-07-23T15:54:46;27.20;1.00
51619;DHT22;38518;53.164;5.430;2022-07-23T15:57:12;26.80;1.00
51619;DHT22;38518;53.164;5.430;2022-07-23T15:59:38;26.50;1.00
51619;DHT22;38518;53.164;5.430;2022-07-23T16:02:04;26.20;1.00
51619;DHT22;38518;53.164;5.430;2022-07-23T16:04:31;26.00;1.00
51619;DHT22;38518;53.164;5.430;2022-07-23T16:06:57;25.80;1.00
51619;DHT22;38518;53.164;5.430;2022-07-23T16:09:23;25.60;1.00
51619;DHT22;38518;53.164;5.430;2022-07-23T16:11:49;25.40;1.00
51619;DHT22;38518;53.164;5.430;2022-07-23T16:14:15;25.30;1.00
51619;DHT22;38518;53.164;5.430;2022-07-23T16:16:41;25.00;1.00
51619;DHT22;38518;53.164;5.430;2022-07-23T16:19:07;25.10;1.00
51619;DHT22;38518;53.164;5.430;2022-07-23T16:21:33;25.00;1.00
51619;DHT22;38518;53.164;5.430;2022-07-23T16:23:59;25.00;1.00
51619;DHT22;38518;53.164;5.430;2022-07-23T16:26:24;24.70;1.00
51619;DHT22;38518;53.164;5.430;2022-07-23T16:28:51;24.50;1.00
51619;DHT22;38518;53.164;5.430;2022-07-23T16:31:17;24.30;1.00
51619;DHT22;38518;53.164;5.430;2022-07-23T16:33:43;24.30;1.00
51619;DHT22;38518;53.164;5.430;2022-07-23T16:36:09;24.10;1.00
51619;DHT22;38518;53.164;5.430;2022-07-23T16:38:36;24.00;1.00
51619;DHT22;38518;53.164;5.430;2022-07-23T16:41:04;24.00;1.00
51619;DHT22;38518;53.164;5.430;2022-07-23T16:43:30;24.00;1.00